createdAt,value
2018-01-11T00:02:24.810Z,9.00
2018-01-11T00:04:53.243Z,7.47
2018-01-11T00:07:22.029Z,8.97
2018-01-11T00:09:53.040Z,18.77
2018-01-11T00:12:24.064Z,7.73
2018-01-11T00:14:53.064Z,4.80
2018-01-11T00:17:21.669Z,3.63
2018-01-11T00:19:50.394Z,7.77
2018-01-11T00:22:19.207Z,3.30
2018-01-11T00:24:48.242Z,7.13
2018-01-11T00:27:17.412Z,6.00
2018-01-11T00:29:46.854Z,5.90
2018-01-11T00:32:15.495Z,4.90
2018-01-11T00:34:43.950Z,7.43
2018-01-11T00:37:12.449Z,7.07
2018-01-11T00:39:54.042Z,6.50
2018-01-11T00:42:22.517Z,6.27
2018-01-11T00:44:51.241Z,5.10
2018-01-11T00:47:19.992Z,8.93
2018-01-11T00:49:49.122Z,5.80
2018-01-11T00:52:19.109Z,7.80
2018-01-11T00:54:50.761Z,9.67
2018-01-11T00:57:19.651Z,16.07
2018-01-11T00:59:48.095Z,8.27
2018-01-11T01:02:17.241Z,2.50
2018-01-11T01:04:45.707Z,4.63
2018-01-11T01:07:14.197Z,5.47
2018-01-11T01:09:42.565Z,2.20
2018-01-11T01:12:10.959Z,3.57
2018-01-11T01:14:40.953Z,3.50
2018-01-11T01:17:09.556Z,3.63
2018-01-11T01:19:38.163Z,5.23
2018-01-11T01:22:06.550Z,7.80
2018-01-11T01:24:34.967Z,10.33
2018-01-11T01:27:03.521Z,5.97
2018-01-11T01:29:32.064Z,9.67
2018-01-11T01:32:00.447Z,13.83
2018-01-11T01:34:28.862Z,3.17
2018-01-11T01:36:57.256Z,8.43
2018-01-11T01:39:25.601Z,7.70
2018-01-11T01:41:53.948Z,9.40
2018-01-11T01:44:23.445Z,7.80
2018-01-11T01:46:52.235Z,9.43
2018-01-11T01:49:20.717Z,4.40
2018-01-11T01:51:49.273Z,11.33
2018-01-11T01:54:17.740Z,8.63
2018-01-11T01:56:59.749Z,10.00
2018-01-11T01:59:28.231Z,6.97
2018-01-11T02:01:56.648Z,9.30
2018-01-11T02:04:25.191Z,4.60
2018-01-11T02:06:53.621Z,7.63
2018-01-11T02:09:22.134Z,6.17
2018-01-11T02:11:50.744Z,7.57
2018-01-11T02:17:22.069Z,6.33
2018-01-11T02:19:53.344Z,9.83
2018-01-11T02:22:22.582Z,12.10
2018-01-11T02:24:51.763Z,8.63
2018-01-11T02:27:26.584Z,20.50
2018-01-11T02:29:55.003Z,7.60
2018-01-11T02:32:24.193Z,1.77
2018-01-11T02:34:52.596Z,10.33
2018-01-11T02:37:21.142Z,9.13
2018-01-11T02:39:52.235Z,6.27
2018-01-11T02:42:20.582Z,10.47
2018-01-11T02:44:48.949Z,7.13
2018-01-11T02:47:17.333Z,6.73
2018-01-11T02:49:45.902Z,6.33
2018-01-11T02:52:19.650Z,7.87
2018-01-11T02:54:54.688Z,5.77
2018-01-11T02:57:28.355Z,6.87
2018-01-11T02:59:57.771Z,6.53
2018-01-11T03:02:32.575Z,5.10
2018-01-11T03:05:07.029Z,8.13
2018-01-11T03:07:35.423Z,4.57
2018-01-11T03:10:03.890Z,4.17
2018-01-11T03:12:32.534Z,5.27
2018-01-11T03:15:02.760Z,3.83
2018-01-11T03:17:36.467Z,8.13
2018-01-11T03:20:18.084Z,8.50
2018-01-11T03:22:46.485Z,6.87
2018-01-11T03:25:16.308Z,3.63
2018-01-11T03:27:50.273Z,11.90
2018-01-11T03:30:22.420Z,7.80
2018-01-11T03:32:58.692Z,21.67
2018-01-11T03:35:28.534Z,10.27
2018-01-11T03:37:56.908Z,9.40
2018-01-11T03:40:25.454Z,21.17
2018-01-11T03:42:54.173Z,10.77
2018-01-11T03:45:25.080Z,19.93
2018-01-11T03:47:59.703Z,16.27
2018-01-11T03:50:28.189Z,17.60
2018-01-11T03:52:56.770Z,6.33
2018-01-11T03:55:25.352Z,1.77
2018-01-11T03:57:53.785Z,13.57
2018-01-11T04:00:23.651Z,4.50
2018-01-11T04:02:52.055Z,6.40
2018-01-11T04:05:20.420Z,9.43
2018-01-11T04:07:48.765Z,2.00
2018-01-11T04:10:18.230Z,4.30
2018-01-11T04:12:46.767Z,5.40
2018-01-11T04:15:18.211Z,4.20
2018-01-11T04:17:47.312Z,4.00
2018-01-11T04:20:15.706Z,2.87
2018-01-11T04:22:44.122Z,7.30
2018-01-11T04:25:13.264Z,2.73
2018-01-11T04:27:41.732Z,6.20
2018-01-11T04:30:10.097Z,5.37
2018-01-11T04:32:38.516Z,8.00
2018-01-11T04:35:14.593Z,5.60
2018-01-11T04:37:45.642Z,5.20
2018-01-11T04:40:15.619Z,6.73
2018-01-11T04:42:45.840Z,7.17
2018-01-11T04:45:14.216Z,4.60
2018-01-11T04:47:42.647Z,4.63
2018-01-11T04:50:11.102Z,3.90
2018-01-11T04:52:40.418Z,2.50
2018-01-11T04:55:09.679Z,2.37
2018-01-11T04:57:45.982Z,7.23
2018-01-11T05:00:18.967Z,3.60
2018-01-11T05:02:47.364Z,2.07
2018-01-11T05:05:17.108Z,5.60
2018-01-11T05:07:45.478Z,2.20
2018-01-11T05:10:13.979Z,4.67
2018-01-11T05:12:42.424Z,6.00
2018-01-11T05:15:11.514Z,7.33
2018-01-11T05:17:40.617Z,10.23
2018-01-11T05:20:09.026Z,12.17
2018-01-11T05:22:37.626Z,8.80
2018-01-11T05:25:06.733Z,21.70
2018-01-11T05:27:35.202Z,16.07
2018-01-11T05:30:05.011Z,10.07
2018-01-11T05:32:33.478Z,14.53
2018-01-11T05:35:09.543Z,5.93
2018-01-11T05:37:38.997Z,23.00
2018-01-11T05:40:08.344Z,7.20
2018-01-11T05:42:36.820Z,5.40
2018-01-11T05:45:05.217Z,9.93
2018-01-11T05:47:40.974Z,10.40
2018-01-11T05:50:09.342Z,18.83
2018-01-11T05:52:37.806Z,14.10
2018-01-11T05:55:07.039Z,7.40
2018-01-11T05:57:35.423Z,8.50
2018-01-11T06:00:04.742Z,9.63
2018-01-11T06:02:38.751Z,14.40
2018-01-11T06:05:07.909Z,9.40
2018-01-11T06:07:36.375Z,9.53
2018-01-11T06:10:04.852Z,10.33
2018-01-11T06:12:33.542Z,11.90
2018-01-11T06:15:02.021Z,10.53
2018-01-11T06:17:30.501Z,10.50
2018-01-11T06:19:59.333Z,9.43
2018-01-11T06:22:29.865Z,11.47
2018-01-11T06:24:58.401Z,12.43
2018-01-11T06:27:26.759Z,9.77
2018-01-11T06:29:55.101Z,4.23
2018-01-11T06:32:31.124Z,5.53
2018-01-11T06:34:59.509Z,9.23
2018-01-11T06:37:27.904Z,8.60
2018-01-11T06:39:56.659Z,12.13
2018-01-11T06:42:25.088Z,9.53
2018-01-11T06:44:54.349Z,9.00
2018-01-11T06:47:24.071Z,5.83
2018-01-11T06:49:52.575Z,13.90
2018-01-11T06:52:26.496Z,12.57
2018-01-11T06:54:56.023Z,9.33
2018-01-11T06:57:24.411Z,5.43
2018-01-11T07:00:00.080Z,8.37
2018-01-11T07:02:29.718Z,14.77
2018-01-11T07:04:59.633Z,10.23
2018-01-11T07:07:28.179Z,13.00
2018-01-11T07:09:57.082Z,9.43
2018-01-11T07:12:26.674Z,28.60
2018-01-11T07:14:55.164Z,20.30
2018-01-11T07:17:24.104Z,22.63
2018-01-11T07:19:53.658Z,31.10
2018-01-11T07:22:22.823Z,28.93
2018-01-11T07:25:05.131Z,32.73
2018-01-11T07:27:34.624Z,21.30
2018-01-11T07:30:11.156Z,31.57
2018-01-11T07:32:39.823Z,26.93
2018-01-11T07:35:21.408Z,20.73
2018-01-11T07:37:57.708Z,23.03
2018-01-11T07:40:27.594Z,15.60
2018-01-11T07:42:56.267Z,13.30
2018-01-11T07:45:24.859Z,24.37
2018-01-11T07:47:53.528Z,8.07
2018-01-11T07:50:22.009Z,10.07
2018-01-11T07:52:50.566Z,11.40
2018-01-11T07:55:18.965Z,13.13
2018-01-11T07:57:52.897Z,14.43
2018-01-11T08:00:21.976Z,20.83
2018-01-11T08:02:50.432Z,22.90
2018-01-11T08:05:18.829Z,15.97
2018-01-11T08:07:47.318Z,17.00
2018-01-11T08:10:15.796Z,12.13
2018-01-11T08:12:44.234Z,22.07
2018-01-11T08:15:13.361Z,7.70
2018-01-11T08:17:43.689Z,13.10
2018-01-11T08:20:12.133Z,11.03
2018-01-11T08:22:47.008Z,29.63
2018-01-11T08:25:15.766Z,28.10
2018-01-11T08:27:44.430Z,22.50
2018-01-11T08:30:13.631Z,14.97
2018-01-11T08:32:42.830Z,10.60
2018-01-11T08:35:12.030Z,11.63
2018-01-11T08:37:41.172Z,12.70
2018-01-11T08:40:09.555Z,12.93
2018-01-11T08:42:44.019Z,18.43
2018-01-11T08:45:12.909Z,25.97
2018-01-11T08:47:41.746Z,18.70
2018-01-11T08:50:10.193Z,32.53
2018-01-11T08:52:46.493Z,17.37
2018-01-11T08:55:15.384Z,4.20
2018-01-11T08:57:43.864Z,16.63
2018-01-11T09:00:15.627Z,17.13
2018-01-11T09:02:45.517Z,14.30
2018-01-11T09:05:14.000Z,14.87
2018-01-11T09:07:42.410Z,6.40
2018-01-11T09:10:10.959Z,8.70
2018-01-11T09:12:39.439Z,12.27
2018-01-11T09:15:14.568Z,11.80
2018-01-11T09:17:56.731Z,12.80
2018-01-11T09:20:25.162Z,16.20
2018-01-11T09:22:53.490Z,16.57
2018-01-11T09:25:21.827Z,10.97
2018-01-11T09:27:50.133Z,16.03
2018-01-11T09:30:18.662Z,10.00
2018-01-11T09:32:51.050Z,3.87
2018-01-11T09:35:19.460Z,14.13
2018-01-11T09:37:49.609Z,11.83
2018-01-11T09:40:20.355Z,9.73
2018-01-11T09:42:49.075Z,14.33
2018-01-11T09:45:17.583Z,11.83
2018-01-11T09:47:46.027Z,9.63
2018-01-11T09:50:14.398Z,8.83
2018-01-11T09:52:42.891Z,15.37
2018-01-11T09:55:11.289Z,6.20
2018-01-11T09:57:55.415Z,15.20
2018-01-11T10:00:24.121Z,3.43
2018-01-11T10:02:52.792Z,13.43
2018-01-11T10:05:21.202Z,16.30
2018-01-11T10:07:50.668Z,13.03
2018-01-11T10:10:19.148Z,9.90
2018-01-11T10:12:47.633Z,11.50
2018-01-11T10:15:16.106Z,7.43
2018-01-11T10:17:44.499Z,11.47
2018-01-11T10:20:18.561Z,6.57
2018-01-11T10:22:54.676Z,7.93
2018-01-11T10:25:22.964Z,7.83
2018-01-11T10:27:51.344Z,13.70
2018-01-11T10:30:23.077Z,10.57
2018-01-11T10:32:54.929Z,9.07
2018-01-11T10:35:23.311Z,14.07
2018-01-11T10:37:51.852Z,15.50
2018-01-11T10:40:20.311Z,17.97
2018-01-11T10:42:48.851Z,22.13
2018-01-11T10:45:17.953Z,13.53
2018-01-11T10:47:46.243Z,17.37
2018-01-11T10:50:15.630Z,17.33
2018-01-11T10:52:58.890Z,17.30
2018-01-11T10:55:28.180Z,22.40
2018-01-11T10:57:56.897Z,15.47
2018-01-11T11:00:26.563Z,9.33
2018-01-11T11:03:08.317Z,10.83
2018-01-11T11:05:44.853Z,13.17
2018-01-11T11:08:13.228Z,16.17
2018-01-11T11:10:41.669Z,15.63
2018-01-11T11:13:10.153Z,10.17
2018-01-11T11:15:38.516Z,14.93
2018-01-11T11:18:07.010Z,19.33
2018-01-11T11:20:36.220Z,10.53
2018-01-11T11:23:04.739Z,12.57
2018-01-11T11:25:33.274Z,11.93
2018-01-11T11:28:01.657Z,13.47
2018-01-11T11:30:31.138Z,18.77
2018-01-11T11:32:59.589Z,19.77
2018-01-11T11:35:28.729Z,24.73
2018-01-11T11:37:57.006Z,24.27
2018-01-11T11:40:25.295Z,15.20
2018-01-11T11:42:53.782Z,16.70
2018-01-11T11:45:22.189Z,19.30
2018-01-11T11:47:51.364Z,28.57
2018-01-11T11:50:19.719Z,19.03
2018-01-11T11:52:48.243Z,43.63
2018-01-11T11:55:18.065Z,32.57
2018-01-11T11:57:47.878Z,19.20
2018-01-11T12:00:20.893Z,27.13
2018-01-11T12:02:49.709Z,17.83
2018-01-11T12:05:31.185Z,17.33
2018-01-11T12:07:59.469Z,18.67
2018-01-11T12:10:27.862Z,12.43
2018-01-11T12:13:09.218Z,21.13
2018-01-11T12:15:43.661Z,22.10
2018-01-11T12:18:11.984Z,24.20
2018-01-11T12:20:41.220Z,24.60
2018-01-11T12:23:15.689Z,48.63
2018-01-11T12:25:50.483Z,23.87
2018-01-11T12:28:18.979Z,20.57
2018-01-11T12:30:47.737Z,58.50
2018-01-11T12:33:16.603Z,28.20
2018-01-11T12:36:00.377Z,16.30
2018-01-11T12:38:28.853Z,16.87
2018-01-11T12:40:57.440Z,8.50
2018-01-11T12:43:25.917Z,18.07
2018-01-11T12:46:02.284Z,17.50
2018-01-11T12:48:31.105Z,25.60
2018-01-11T12:51:00.476Z,11.03
2018-01-11T12:53:29.160Z,12.67
2018-01-11T12:55:57.994Z,8.00
2018-01-11T12:58:27.398Z,5.83
2018-01-11T13:00:56.689Z,17.47
2018-01-11T13:03:26.008Z,10.57
2018-01-11T13:05:55.119Z,18.13
2018-01-11T13:08:26.089Z,19.53
2018-01-11T13:10:54.981Z,22.23
2018-01-11T13:13:23.639Z,15.27
2018-01-11T13:15:52.716Z,19.97
2018-01-11T13:18:21.340Z,17.67
2018-01-11T13:20:50.328Z,23.97
2018-01-11T13:23:20.089Z,20.47
2018-01-11T13:25:48.433Z,16.13
2018-01-11T13:28:16.776Z,13.47
2018-01-11T13:30:45.105Z,7.60
2018-01-11T13:33:13.450Z,6.57
2018-01-11T13:35:41.810Z,18.70
2018-01-11T13:38:10.167Z,32.80
2018-01-11T13:40:39.240Z,22.17
2018-01-11T13:43:07.915Z,14.40
2018-01-11T13:45:37.362Z,27.97
2018-01-11T13:48:08.231Z,7.27
2018-01-11T13:50:36.643Z,17.27
2018-01-11T13:53:05.086Z,13.90
2018-01-11T13:55:33.567Z,8.63
2018-01-11T13:58:02.768Z,17.80
2018-01-11T14:00:31.253Z,12.47
2018-01-11T14:03:00.240Z,9.53
2018-01-11T14:05:36.706Z,9.80
2018-01-11T14:08:05.104Z,11.13
2018-01-11T14:10:34.590Z,16.87
2018-01-11T14:13:03.889Z,8.40
2018-01-11T14:15:32.382Z,13.73
2018-01-11T14:18:00.850Z,16.73
2018-01-11T14:20:29.333Z,14.57
2018-01-11T14:22:57.766Z,18.60
2018-01-11T14:25:27.141Z,13.97
2018-01-11T14:28:04.119Z,10.80
2018-01-11T14:30:32.572Z,13.13
2018-01-11T14:33:01.227Z,8.47
2018-01-11T14:35:30.561Z,16.13
2018-01-11T14:38:02.484Z,5.90
2018-01-11T14:40:31.922Z,4.27
2018-01-11T14:43:02.664Z,29.37
2018-01-11T14:45:31.077Z,27.33
2018-01-11T14:47:59.414Z,13.63
2018-01-11T14:50:28.102Z,11.73
2018-01-11T15:36:38.960Z,7.53
2018-01-11T15:39:07.442Z,12.63
2018-01-11T15:41:36.550Z,13.27
2018-01-11T15:44:05.158Z,8.37
2018-01-11T15:46:33.712Z,21.33
2018-01-11T15:49:04.113Z,22.27
2018-01-11T15:51:32.731Z,21.80
2018-01-11T15:54:02.010Z,12.33
2018-01-11T15:56:31.953Z,7.53
2018-01-11T15:59:00.336Z,14.50
2018-01-11T16:01:38.920Z,11.67
2018-01-11T16:04:07.280Z,19.70
2018-01-11T16:06:43.683Z,25.57
2018-01-11T16:09:12.069Z,6.70
2018-01-11T16:11:40.798Z,3.80
2018-01-11T16:14:11.206Z,7.73
2018-01-11T16:16:39.651Z,10.70
2018-01-11T16:19:08.221Z,12.30
2018-01-11T16:21:37.718Z,15.50
2018-01-11T16:24:07.301Z,12.20
2018-01-11T16:26:36.011Z,12.27
2018-01-11T16:29:06.909Z,7.00
2018-01-11T16:31:41.620Z,6.60
2018-01-11T16:34:10.163Z,3.37
2018-01-11T16:36:40.749Z,10.37
2018-01-11T16:39:10.881Z,5.30
2018-01-11T16:41:39.534Z,11.87
2018-01-11T16:44:13.345Z,7.80
2018-01-11T16:46:41.888Z,6.03
2018-01-11T16:49:10.212Z,9.57
2018-01-11T16:51:41.273Z,13.33
2018-01-11T16:54:09.937Z,8.57
2018-01-11T16:56:38.370Z,11.73
2018-01-11T16:59:07.365Z,11.63
2018-01-11T17:01:37.917Z,26.27
2018-01-11T17:04:06.270Z,10.03
2018-01-11T17:06:34.648Z,3.20
2018-01-11T17:09:03.399Z,9.33
2018-01-11T17:11:32.621Z,5.67
2018-01-11T17:14:04.195Z,3.43
2018-01-11T17:16:32.568Z,4.80
2018-01-11T17:19:01.251Z,3.77
2018-01-11T17:21:29.656Z,6.47
2018-01-11T17:24:06.136Z,3.93
2018-01-11T17:26:34.784Z,4.70
2018-01-11T17:29:07.170Z,5.00
2018-01-11T17:31:42.609Z,3.40
2018-01-11T17:34:12.083Z,5.23
2018-01-11T17:36:40.693Z,2.87
2018-01-11T17:39:15.516Z,6.77
2018-01-11T17:41:43.879Z,5.13
2018-01-11T17:44:12.322Z,3.77
2018-01-11T17:46:41.664Z,5.27
2018-01-11T17:49:10.987Z,12.17
2018-01-11T17:51:39.356Z,4.83
2018-01-11T17:54:08.704Z,8.30
2018-01-11T17:56:37.251Z,3.03
2018-01-11T17:59:05.648Z,5.83
2018-01-11T18:01:34.208Z,3.83
2018-01-11T18:04:03.095Z,5.60
2018-01-11T18:06:31.574Z,7.90
2018-01-11T18:09:00.807Z,7.63
2018-01-11T18:11:29.456Z,2.33
2018-01-11T18:13:58.139Z,5.60
2018-01-11T18:16:28.113Z,5.80
2018-01-11T18:18:57.414Z,2.83
2018-01-11T18:21:26.093Z,3.53
2018-01-11T18:26:41.353Z,3.17
2018-01-11T18:29:16.712Z,3.23
2018-01-11T18:31:47.141Z,10.20
2018-01-11T18:34:20.077Z,2.90
2018-01-11T18:36:48.612Z,3.13
2018-01-11T18:39:17.201Z,1.90
2018-01-11T18:41:45.791Z,4.77
2018-01-11T18:44:15.353Z,1.57
2018-01-11T18:46:47.872Z,1.00
2018-01-11T18:49:18.567Z,5.07
2018-01-11T18:51:47.804Z,9.27
2018-01-11T18:54:22.284Z,3.13
2018-01-11T18:56:50.977Z,7.93
2018-01-11T18:59:28.330Z,2.00
2018-01-11T19:01:57.423Z,2.50
2018-01-11T19:04:26.878Z,6.83
2018-01-11T19:06:56.888Z,6.83
2018-01-11T19:09:25.228Z,4.47
2018-01-11T19:11:54.045Z,2.30
2018-01-11T19:14:23.667Z,2.70
2018-01-11T19:16:53.565Z,6.23
2018-01-11T19:19:23.133Z,7.73
2018-01-11T19:21:53.833Z,5.30
2018-01-11T19:24:32.014Z,7.27
2018-01-11T19:27:06.111Z,5.50
2018-01-11T19:29:38.119Z,7.93
2018-01-11T19:32:14.417Z,6.63
2018-01-11T19:34:49.792Z,9.23
2018-01-11T19:37:25.059Z,6.70
2018-01-11T19:39:56.028Z,8.93
2018-01-11T19:42:26.098Z,6.93
2018-01-11T19:45:17.483Z,4.30
2018-01-11T19:47:47.257Z,8.83
2018-01-11T19:50:33.000Z,5.03
2018-01-11T19:53:01.479Z,10.43
2018-01-11T19:55:36.782Z,7.10
2018-01-11T19:58:09.606Z,8.77
2018-01-11T20:00:38.400Z,13.40
2018-01-11T20:03:06.932Z,5.07
2018-01-11T20:05:41.685Z,5.83
2018-01-11T20:08:24.806Z,3.50
2018-01-11T20:10:55.174Z,6.73
2018-01-11T20:13:27.398Z,7.23
2018-01-11T20:15:56.979Z,1.30
2018-01-11T20:18:39.367Z,3.97
2018-01-11T20:21:08.371Z,2.67
2018-01-11T20:23:39.829Z,2.50
2018-01-11T20:26:11.501Z,2.60
2018-01-11T20:28:42.600Z,5.23
2018-01-11T20:31:26.899Z,1.90
2018-01-11T20:34:02.295Z,6.80
2018-01-11T20:36:35.609Z,5.13
2018-01-11T20:39:05.392Z,3.80
2018-01-11T20:41:35.631Z,6.30
2018-01-11T20:44:04.807Z,1.87
2018-01-11T20:46:33.538Z,3.07
2018-01-11T20:49:02.129Z,3.73
2018-01-11T20:51:31.936Z,8.27
2018-01-11T20:54:01.279Z,2.43
2018-01-11T20:56:31.729Z,4.33
2018-01-11T20:59:00.181Z,1.57
2018-01-11T21:01:28.614Z,2.67
2018-01-11T21:03:59.057Z,3.40
2018-01-11T21:06:27.996Z,2.80
2018-01-11T21:09:03.103Z,1.80
2018-01-11T21:11:32.010Z,1.80
2018-01-11T21:14:01.003Z,2.83
2018-01-11T21:16:48.218Z,6.83
2018-01-11T21:19:18.605Z,1.97
2018-01-11T21:21:59.809Z,7.03
2018-01-11T21:24:29.442Z,1.23
2018-01-11T21:26:58.109Z,11.30
2018-01-11T21:29:26.746Z,5.03
2018-01-11T21:31:55.279Z,5.67
2018-01-11T21:34:24.747Z,2.67
2018-01-11T21:36:58.194Z,3.63
2018-01-11T21:39:32.903Z,5.13
2018-01-11T21:42:06.528Z,4.43
2018-01-11T21:44:35.127Z,7.20
2018-01-11T21:47:07.134Z,6.20
2018-01-11T21:49:37.451Z,2.50
2018-01-11T21:52:06.156Z,1.90
2018-01-11T21:54:38.162Z,0.70
2018-01-11T21:57:08.429Z,1.27
2018-01-11T21:59:37.742Z,4.63
2018-01-11T22:02:16.911Z,2.23
2018-01-11T22:04:50.893Z,1.07
2018-01-11T22:07:22.329Z,3.23
2018-01-11T22:09:52.003Z,1.33
2018-01-11T22:12:21.977Z,0.80
2018-01-11T22:14:50.898Z,3.33
2018-01-11T22:17:20.033Z,2.17
2018-01-11T22:20:03.450Z,2.00
2018-01-11T22:22:33.905Z,2.03
2018-01-11T22:25:06.662Z,4.63
2018-01-11T22:27:36.484Z,3.83
2018-01-11T22:30:05.258Z,0.90
2018-01-11T22:32:34.418Z,1.53
2018-01-11T22:35:03.106Z,1.73
2018-01-11T22:37:31.628Z,2.77
2018-01-11T22:40:01.250Z,0.73
2018-01-11T22:42:39.410Z,1.50
2018-01-11T22:45:08.993Z,1.70
2018-01-11T22:47:38.799Z,2.13
2018-01-11T22:50:07.238Z,1.80
2018-01-11T22:52:36.583Z,4.97
2018-01-11T22:55:05.163Z,2.60
2018-01-11T22:57:33.937Z,5.53
2018-01-11T23:00:03.594Z,6.50
2018-01-11T23:02:33.532Z,4.60
2018-01-11T23:05:02.994Z,11.67
2018-01-11T23:07:31.572Z,4.57
2018-01-11T23:10:00.026Z,2.30
2018-01-11T23:12:40.656Z,2.90
2018-01-11T23:15:20.771Z,5.67
2018-01-11T23:17:49.750Z,4.30
2018-01-11T23:20:23.924Z,1.43
2018-01-11T23:22:53.536Z,1.43
2018-01-11T23:25:24.620Z,1.10
2018-01-11T23:27:56.360Z,6.43
2018-01-11T23:30:25.160Z,11.30
2018-01-11T23:32:53.746Z,1.20
2018-01-11T23:35:22.156Z,0.90
2018-01-11T23:37:51.758Z,0.83
2018-01-11T23:40:22.014Z,1.00
2018-01-11T23:42:51.218Z,1.80
2018-01-11T23:45:20.477Z,1.23
2018-01-11T23:47:49.189Z,2.50
2018-01-11T23:50:17.720Z,1.50
2018-01-11T23:52:46.159Z,2.30
2018-01-11T23:55:15.339Z,0.80
2018-01-11T23:57:43.784Z,1.07
